Time;durP1;ratioP1;P1;durP2;ratioP2;P2;SDS_P1;SDS_P2;PMS_P1;PMS_P2;Temp;Humidity;BMP_temperature;BMP_pressure;BME280_temperature;BME280_humidity;BME280_pressure;Samples;Min_cycle;Max_cycle;Signal;HPM_P1;HPM_P2
2023/01/26 00:02:19;;;;;;;0.20;0.20;;;;;;;;;;5112296;28;20250;-66
2023/01/26 00:04:47;;;;;;;0.20;0.20;;;;;;;;;;5124302;28;20361;-66
2023/01/26 00:07:13;;;;;;;0.27;0.27;;;;;;;;;;5112083;28;20302;-67
2023/01/26 00:09:39;;;;;;;0.20;0.20;;;;;;;;;;5124137;28;20264;-65
2023/01/26 00:12:06;;;;;;;0.30;0.30;;;;;;;;;;5112173;28;20290;-65
2023/01/26 00:14:48;;;;;;;0.20;0.20;;;;;;;;;;5124123;28;20211;-65
2023/01/26 00:17:15;;;;;;;0.30;0.30;;;;;;;;;;5112056;28;20268;-65
2023/01/26 00:19:41;;;;;;;0.20;0.20;;;;;;;;;;5124054;28;20208;-65
2023/01/26 00:22:14;;;;;;;0.20;0.20;;;;;;;;;;5112246;28;20238;-65
2023/01/26 00:24:40;;;;;;;0.20;0.20;;;;;;;;;;5123492;28;20215;-65
2023/01/26 00:27:07;;;;;;;0.30;0.30;;;;;;;;;;5112152;28;20311;-66
2023/01/26 00:29:33;;;;;;;0.20;0.20;;;;;;;;;;5123950;28;20223;-66
2023/01/26 00:31:59;;;;;;;0.20;0.20;;;;;;;;;;5112124;28;20311;-65
2023/01/26 00:34:26;;;;;;;0.20;0.20;;;;;;;;;;5123771;28;20196;-65
2023/01/26 00:36:55;;;;;;;0.20;0.20;;;;;;;;;;5112539;28;20269;-65
2023/01/26 00:39:23;;;;;;;0.20;0.20;;;;;;;;;;5127689;28;20217;-67
2023/01/26 00:42:08;;;;;;;0.30;0.30;;;;;;;;;;5116084;28;20242;-66
2023/01/26 00:44:35;;;;;;;0.20;0.20;;;;;;;;;;5127802;28;20250;-66
2023/01/26 00:47:02;;;;;;;0.20;0.20;;;;;;;;;;5116151;28;20258;-67
2023/01/26 00:49:28;;;;;;;0.20;0.20;;;;;;;;;;5127533;28;20393;-67
2023/01/26 00:51:54;;;;;;;0.30;0.30;;;;;;;;;;5115814;28;20315;-67
2023/01/26 00:54:21;;;;;;;0.20;0.20;;;;;;;;;;5127354;28;20273;-69
2023/01/26 00:56:48;;;;;;;0.20;0.20;;;;;;;;;;5115644;28;20562;-67
2023/01/26 00:59:15;;;;;;;0.20;0.20;;;;;;;;;;5127233;28;20451;-68
2023/01/26 01:01:41;;;;;;;0.20;0.20;;;;;;;;;;5115632;28;20307;-68
2023/01/26 01:04:08;;;;;;;0.20;0.20;;;;;;;;;;5127160;28;20241;-67
2023/01/26 01:06:34;;;;;;;0.20;0.20;;;;;;;;;;5115751;28;20450;-68
2023/01/26 01:09:00;;;;;;;0.20;0.20;;;;;;;;;;5126860;28;20495;-68
2023/01/26 01:11:27;;;;;;;0.20;0.20;;;;;;;;;;5116015;28;20487;-67
2023/01/26 01:13:55;;;;;;;0.20;0.20;;;;;;;;;;5126442;28;20210;-68
2023/01/26 01:16:21;;;;;;;0.30;0.30;;;;;;;;;;5115551;28;20258;-69
2023/01/26 01:18:47;;;;;;;0.20;0.20;;;;;;;;;;5126563;28;20235;-68
2023/01/26 01:21:15;;;;;;;0.27;0.27;;;;;;;;;;5115592;28;20438;-68
2023/01/26 01:23:43;;;;;;;0.23;0.23;;;;;;;;;;5126432;28;20242;-68
2023/01/26 01:26:09;;;;;;;0.20;0.20;;;;;;;;;;5115545;28;20481;-68
2023/01/26 01:28:36;;;;;;;0.20;0.20;;;;;;;;;;5126028;28;20235;-68
2023/01/26 01:31:05;;;;;;;0.30;0.30;;;;;;;;;;5115344;28;20244;-69
2023/01/26 01:33:31;;;;;;;0.20;0.20;;;;;;;;;;5126195;28;20242;-68
2023/01/26 01:35:58;;;;;;;0.30;0.30;;;;;;;;;;5115598;28;20558;-68
2023/01/26 01:38:25;;;;;;;0.30;0.30;;;;;;;;;;5125745;28;20280;-68
2023/01/26 01:40:51;;;;;;;0.30;0.30;;;;;;;;;;5115681;28;20243;-68
2023/01/26 01:43:18;;;;;;;0.30;0.30;;;;;;;;;;5125910;28;20539;-68
2023/01/26 01:45:45;;;;;;;0.20;0.20;;;;;;;;;;5115548;28;20252;-68
2023/01/26 01:48:16;;;;;;;0.20;0.20;;;;;;;;;;5125259;28;20271;-68
2023/01/26 01:50:43;;;;;;;0.23;0.23;;;;;;;;;;5115193;28;20265;-68
2023/01/26 01:53:11;;;;;;;0.23;0.23;;;;;;;;;;5125554;28;20270;-68
2023/01/26 01:55:37;;;;;;;0.30;0.30;;;;;;;;;;5115007;28;20248;-68
2023/01/26 01:58:05;;;;;;;0.30;0.30;;;;;;;;;;5125244;28;20211;-68
2023/01/26 02:00:31;;;;;;;0.20;0.20;;;;;;;;;;5115433;28;20245;-68
2023/01/26 02:03:13;;;;;;;0.27;0.27;;;;;;;;;;5124971;28;20216;-67
2023/01/26 02:05:42;;;;;;;0.20;0.20;;;;;;;;;;5114862;28;20242;-68
2023/01/26 02:08:09;;;;;;;0.20;0.20;;;;;;;;;;5124945;28;20245;-68
2023/01/26 02:10:36;;;;;;;0.20;0.20;;;;;;;;;;5114781;28;20237;-68
2023/01/26 02:13:03;;;;;;;0.23;0.23;;;;;;;;;;5124912;28;20227;-68
2023/01/26 02:15:30;;;;;;;0.20;0.20;;;;;;;;;;5114979;28;20241;-68
2023/01/26 02:17:57;;;;;;;0.20;0.20;;;;;;;;;;5124650;28;20237;-67
2023/01/26 02:20:28;;;;;;;0.20;0.20;;;;;;;;;;5114863;28;20230;-67
2023/01/26 02:23:00;;;;;;;0.20;0.20;;;;;;;;;;5124427;28;20237;-68
2023/01/26 02:25:32;;;;;;;0.20;0.20;;;;;;;;;;5114990;28;20222;-68
2023/01/26 02:28:00;;;;;;;0.20;0.20;;;;;;;;;;5124633;28;20440;-68
2023/01/26 02:30:27;;;;;;;0.20;0.20;;;;;;;;;;5114391;28;20298;-68
2023/01/26 02:32:53;;;;;;;0.20;0.20;;;;;;;;;;5124322;28;20207;-68
2023/01/26 02:35:19;;;;;;;0.30;0.30;;;;;;;;;;5114504;28;20222;-67
2023/01/26 02:37:46;;;;;;;0.20;0.20;;;;;;;;;;5124049;28;20274;-67
2023/01/26 02:40:16;;;;;;;0.20;0.20;;;;;;;;;;5114858;28;20385;-68
2023/01/26 02:42:43;;;;;;;0.57;0.57;;;;;;;;;;5124210;28;20429;-67
2023/01/26 02:45:13;;;;;;;0.20;0.20;;;;;;;;;;5124957;28;20205;-68
2023/01/26 02:47:40;;;;;;;0.20;0.20;;;;;;;;;;5096418;28;20534;-68
2023/01/26 02:50:05;;;;;;;0.20;0.20;;;;;;;;;;5125026;28;20451;-68
2023/01/26 02:52:32;;;;;;;0.27;0.27;;;;;;;;;;5113651;28;20236;-69
2023/01/26 02:57:42;;;;;;;0.20;0.20;;;;;;;;;;5096399;28;20282;-68
2023/01/26 03:00:10;;;;;;;0.30;0.30;;;;;;;;;;5124367;28;20392;-68
2023/01/26 03:02:38;;;;;;;0.20;0.20;;;;;;;;;;5095697;28;20212;-68
2023/01/26 03:05:04;;;;;;;0.30;0.30;;;;;;;;;;5124913;28;20210;-67
2023/01/26 03:07:31;;;;;;;0.30;0.30;;;;;;;;;;5113098;28;20239;-68
2023/01/26 03:09:58;;;;;;;0.27;0.27;;;;;;;;;;5124651;28;20261;-68
2023/01/26 03:12:25;;;;;;;0.20;0.20;;;;;;;;;;5112849;28;20241;-68
2023/01/26 03:15:33;;;;;;;0.20;0.20;;;;;;;;;;5124984;28;20238;-68
2023/01/26 03:17:44;;;;;;;0.23;0.23;;;;;;;;;;5095813;28;20206;-68
2023/01/26 03:28:21;;;;;;;0.23;0.23;;;;;;;;;;5123822;28;20384;-68
2023/01/26 03:30:47;;;;;;;0.20;0.20;;;;;;;;;;5113371;28;20550;-68
2023/01/26 03:33:15;;;;;;;0.20;0.20;;;;;;;;;;5123778;28;20229;-68
2023/01/26 03:35:41;;;;;;;0.30;0.30;;;;;;;;;;5113299;28;20256;-68
2023/01/26 03:38:08;;;;;;;0.20;0.20;;;;;;;;;;5123316;28;20289;-68
2023/01/26 03:57:00;;;;;;;0.20;0.20;;;;;;;;;;5112573;28;20269;-68
2023/01/26 03:59:37;;;;;;;0.30;0.30;;;;;;;;;;5124301;28;20233;-68
2023/01/26 04:10:17;;;;;;;0.23;0.23;;;;;;;;;;5113282;28;20217;-68
2023/01/26 04:12:44;;;;;;;0.30;0.30;;;;;;;;;;5125061;28;20232;-71
2023/01/26 04:23:23;;;;;;;0.20;0.20;;;;;;;;;;5127163;28;20223;-70
2023/01/26 04:25:50;;;;;;;0.30;0.30;;;;;;;;;;5116974;28;20505;-70
2023/01/26 04:28:16;;;;;;;0.30;0.30;;;;;;;;;;5127265;28;20209;-70
2023/01/26 04:30:42;;;;;;;0.30;0.30;;;;;;;;;;5116582;28;20250;-70
2023/01/26 04:33:09;;;;;;;0.30;0.30;;;;;;;;;;5127187;28;20273;-69
2023/01/26 04:35:35;;;;;;;0.30;0.30;;;;;;;;;;5116726;28;20238;-70
2023/01/26 04:38:03;;;;;;;0.30;0.30;;;;;;;;;;5126764;28;20266;-70
2023/01/26 04:40:29;;;;;;;0.30;0.30;;;;;;;;;;5116898;28;20221;-70
2023/01/26 04:42:55;;;;;;;0.30;0.30;;;;;;;;;;5126667;28;20256;-70
2023/01/26 04:45:22;;;;;;;0.30;0.30;;;;;;;;;;5116665;28;20206;-70
2023/01/26 04:47:49;;;;;;;0.30;0.30;;;;;;;;;;5126262;28;20266;-70
2023/01/26 04:50:16;;;;;;;0.30;0.30;;;;;;;;;;5116530;28;20448;-69
2023/01/26 04:52:43;;;;;;;0.30;0.30;;;;;;;;;;5126378;28;20229;-69
2023/01/26 04:55:11;;;;;;;0.30;0.30;;;;;;;;;;5127347;28;20215;-69
2023/01/26 04:57:37;;;;;;;0.30;0.30;;;;;;;;;;5098242;28;20293;-69
2023/01/26 05:00:04;;;;;;;0.30;0.30;;;;;;;;;;5127007;28;20239;-69
2023/01/26 05:02:30;;;;;;;0.30;0.30;;;;;;;;;;5115251;28;20673;-70
2023/01/26 05:04:57;;;;;;;0.30;0.30;;;;;;;;;;5126868;28;20237;-69
2023/01/26 05:07:23;;;;;;;0.30;0.30;;;;;;;;;;5115294;28;20251;-70
2023/01/26 05:09:50;;;;;;;0.30;0.30;;;;;;;;;;5126540;28;20289;-70
2023/01/26 05:14:58;;;;;;;0.30;0.30;;;;;;;;;;5124850;28;20270;-70
2023/01/26 05:17:24;;;;;;;0.30;0.30;;;;;;;;;;5115078;28;20250;-70
2023/01/26 05:19:58;;;;;;;0.30;0.30;;;;;;;;;;5127176;28;20454;-69
2023/01/26 05:22:24;;;;;;;0.30;0.30;;;;;;;;;;5113956;28;20309;-69
2023/01/26 05:24:51;;;;;;;0.30;0.30;;;;;;;;;;5125437;28;20202;-69
2023/01/26 05:27:21;;;;;;;0.30;0.30;;;;;;;;;;5115001;28;20264;-70
2023/01/26 05:29:48;;;;;;;0.30;0.30;;;;;;;;;;5126908;28;20231;-69
2023/01/26 05:32:14;;;;;;;0.30;0.30;;;;;;;;;;5114729;28;20249;-69
2023/01/26 05:34:40;;;;;;;0.20;0.20;;;;;;;;;;5126708;28;20202;-69
2023/01/26 05:37:11;;;;;;;0.27;0.27;;;;;;;;;;5114635;28;20252;-69
2023/01/26 05:39:37;;;;;;;0.30;0.30;;;;;;;;;;5126735;28;20538;-69
2023/01/26 05:42:03;;;;;;;0.30;0.30;;;;;;;;;;5114552;28;20262;-69
2023/01/26 05:44:31;;;;;;;0.30;0.30;;;;;;;;;;5126550;28;20271;-69
2023/01/26 05:46:57;;;;;;;0.27;0.27;;;;;;;;;;5114590;28;20255;-69
2023/01/26 05:49:24;;;;;;;0.30;0.30;;;;;;;;;;5126268;28;20200;-71
2023/01/26 05:51:50;;;;;;;0.30;0.30;;;;;;;;;;5114570;28;20237;-70
2023/01/26 05:54:17;;;;;;;0.30;0.30;;;;;;;;;;5126267;28;20446;-70
2023/01/26 05:56:43;;;;;;;0.30;0.30;;;;;;;;;;5114570;28;20305;-70
2023/01/26 05:59:10;;;;;;;0.30;0.30;;;;;;;;;;5126075;28;20448;-70
2023/01/26 06:01:38;;;;;;;0.30;0.30;;;;;;;;;;5114729;28;20275;-70
2023/01/26 06:04:04;;;;;;;0.30;0.30;;;;;;;;;;5125815;28;20206;-70
2023/01/26 06:06:31;;;;;;;0.30;0.30;;;;;;;;;;5114547;28;20235;-70
2023/01/26 06:08:57;;;;;;;0.30;0.30;;;;;;;;;;5125640;28;20208;-69
2023/01/26 06:11:24;;;;;;;0.30;0.30;;;;;;;;;;5114604;28;20267;-69
2023/01/26 06:13:50;;;;;;;0.30;0.30;;;;;;;;;;5125526;28;20275;-70
2023/01/26 06:16:16;;;;;;;0.30;0.30;;;;;;;;;;5114544;28;20268;-70
2023/01/26 06:18:47;;;;;;;0.30;0.30;;;;;;;;;;5125305;28;20204;-70
2023/01/26 06:21:13;;;;;;;0.30;0.30;;;;;;;;;;5114511;28;20491;-71
2023/01/26 06:23:39;;;;;;;0.20;0.20;;;;;;;;;;5125238;28;20246;-70
2023/01/26 06:26:06;;;;;;;0.20;0.20;;;;;;;;;;5114296;28;20486;-70
2023/01/26 06:28:32;;;;;;;0.30;0.30;;;;;;;;;;5125086;28;20428;-70
2023/01/26 06:30:59;;;;;;;0.30;0.30;;;;;;;;;;5114263;28;20309;-70
2023/01/26 06:33:25;;;;;;;0.30;0.30;;;;;;;;;;5124700;28;20273;-70
2023/01/26 06:35:54;;;;;;;0.30;0.30;;;;;;;;;;5114087;28;20459;-70
2023/01/26 06:38:21;;;;;;;0.30;0.30;;;;;;;;;;5124748;28;20212;-70
2023/01/26 06:40:47;;;;;;;0.30;0.30;;;;;;;;;;5114217;28;20253;-70
2023/01/26 06:43:13;;;;;;;0.30;0.30;;;;;;;;;;5124425;28;20206;-70
2023/01/26 06:45:41;;;;;;;0.30;0.30;;;;;;;;;;5114319;28;20562;-70
2023/01/26 06:48:07;;;;;;;0.30;0.30;;;;;;;;;;5124298;28;20256;-70
2023/01/26 06:50:35;;;;;;;0.30;0.30;;;;;;;;;;5114275;28;20241;-70
2023/01/26 06:53:20;;;;;;;0.30;0.30;;;;;;;;;;5124378;28;20269;-70
2023/01/26 06:55:48;;;;;;;0.30;0.30;;;;;;;;;;5114167;28;20304;-69
2023/01/26 06:58:14;;;;;;;0.30;0.30;;;;;;;;;;5124151;28;20420;-70
2023/01/26 07:00:40;;;;;;;0.23;0.23;;;;;;;;;;5113854;28;20240;-70
2023/01/26 07:03:08;;;;;;;0.20;0.20;;;;;;;;;;5123957;28;20274;-70
2023/01/26 07:05:34;;;;;;;0.30;0.30;;;;;;;;;;5113806;28;20259;-69
2023/01/26 07:08:03;;;;;;;0.30;0.30;;;;;;;;;;5123975;28;20270;-69
2023/01/26 07:10:30;;;;;;;0.30;0.30;;;;;;;;;;5113724;28;20291;-70
2023/01/26 07:12:57;;;;;;;0.30;0.30;;;;;;;;;;5123975;28;20448;-70
2023/01/26 07:15:23;;;;;;;0.30;0.30;;;;;;;;;;5113774;28;20511;-70
2023/01/26 07:17:51;;;;;;;0.30;0.30;;;;;;;;;;5123820;28;20441;-69
2023/01/26 07:20:18;;;;;;;0.30;0.30;;;;;;;;;;5113704;28;20238;-70
2023/01/26 07:22:44;;;;;;;0.27;0.27;;;;;;;;;;5123175;28;20438;-68
2023/01/26 07:25:11;;;;;;;0.30;0.30;;;;;;;;;;5114123;28;20373;-68
2023/01/26 07:27:40;;;;;;;0.30;0.30;;;;;;;;;;5123547;28;20421;-68
2023/01/26 07:30:07;;;;;;;0.30;0.30;;;;;;;;;;5123973;28;20211;-68
2023/01/26 07:32:33;;;;;;;0.30;0.30;;;;;;;;;;5095560;28;20531;-68
2023/01/26 07:35:00;;;;;;;0.30;0.30;;;;;;;;;;5124440;28;20202;-68
2023/01/26 07:37:27;;;;;;;0.30;0.30;;;;;;;;;;5112523;28;20261;-68
2023/01/26 07:39:53;;;;;;;0.30;0.30;;;;;;;;;;5123716;28;20225;-67
2023/01/26 07:42:20;;;;;;;0.30;0.30;;;;;;;;;;5112687;28;20235;-67
2023/01/26 07:44:47;;;;;;;0.30;0.30;;;;;;;;;;5124569;28;20506;-68
2023/01/26 07:47:14;;;;;;;0.30;0.30;;;;;;;;;;5112087;28;20249;-67
2023/01/26 07:49:40;;;;;;;0.30;0.30;;;;;;;;;;5124373;28;20207;-67
2023/01/26 07:52:07;;;;;;;0.30;0.30;;;;;;;;;;5112490;28;20253;-67
2023/01/26 07:54:33;;;;;;;0.30;0.30;;;;;;;;;;5123918;28;20208;-67
2023/01/26 07:57:00;;;;;;;0.30;0.30;;;;;;;;;;5112510;28;20451;-68
2023/01/26 07:59:26;;;;;;;0.30;0.30;;;;;;;;;;5124295;28;20273;-67
2023/01/26 08:01:54;;;;;;;0.30;0.30;;;;;;;;;;5112666;28;20485;-68
2023/01/26 08:04:20;;;;;;;0.30;0.30;;;;;;;;;;5123774;28;20206;-67
2023/01/26 08:06:47;;;;;;;0.30;0.30;;;;;;;;;;5112324;28;20242;-68
2023/01/26 08:09:13;;;;;;;0.30;0.30;;;;;;;;;;5124042;28;20242;-68
2023/01/26 08:11:39;;;;;;;0.30;0.30;;;;;;;;;;5112337;28;20265;-68
2023/01/26 08:14:06;;;;;;;0.30;0.30;;;;;;;;;;5124015;28;20201;-68
2023/01/26 08:16:32;;;;;;;0.20;0.20;;;;;;;;;;5112425;28;20238;-68
2023/01/26 08:19:00;;;;;;;0.30;0.30;;;;;;;;;;5123816;28;20270;-68
2023/01/26 08:21:26;;;;;;;0.30;0.30;;;;;;;;;;5112585;28;20236;-68
2023/01/26 08:23:53;;;;;;;0.30;0.30;;;;;;;;;;5123677;28;20269;-68
2023/01/26 08:26:20;;;;;;;0.20;0.20;;;;;;;;;;5112415;28;20504;-68
2023/01/26 08:28:46;;;;;;;0.20;0.20;;;;;;;;;;5123507;28;20202;-68
2023/01/26 08:31:14;;;;;;;0.30;0.30;;;;;;;;;;5112522;28;20250;-68
2023/01/26 08:33:41;;;;;;;0.20;0.20;;;;;;;;;;5123478;28;20233;-68
2023/01/26 08:36:11;;;;;;;0.30;0.30;;;;;;;;;;5112577;28;20278;-69
2023/01/26 08:38:37;;;;;;;0.20;0.20;;;;;;;;;;5123470;28;20278;-68
2023/01/26 08:41:04;;;;;;;0.30;0.30;;;;;;;;;;5112883;28;20297;-68
2023/01/26 08:43:30;;;;;;;0.30;0.30;;;;;;;;;;5123104;28;20209;-68
2023/01/26 08:45:57;;;;;;;0.23;0.23;;;;;;;;;;5112739;28;20250;-68
2023/01/26 08:48:23;;;;;;;0.20;0.20;;;;;;;;;;5123371;28;20450;-68
2023/01/26 08:50:53;;;;;;;0.30;0.30;;;;;;;;;;5112803;28;20230;-74
2023/01/26 08:53:20;;;;;;;0.30;0.30;;;;;;;;;;5123176;28;20498;-74
2023/01/26 08:55:47;;;;;;;0.20;0.20;;;;;;;;;;5112648;28;20259;-73
2023/01/26 08:58:13;;;;;;;0.30;0.30;;;;;;;;;;5123014;28;20234;-76
2023/01/26 09:00:40;;;;;;;0.30;0.30;;;;;;;;;;5116081;28;20296;-67
2023/01/26 09:03:06;;;;;;;0.30;0.30;;;;;;;;;;5126395;28;20201;-69
2023/01/26 09:05:33;;;;;;;0.20;0.20;;;;;;;;;;5116474;28;20251;-72
2023/01/26 09:08:00;;;;;;;0.23;0.23;;;;;;;;;;5126504;28;20204;-67
2023/01/26 09:10:27;;;;;;;0.30;0.30;;;;;;;;;;5116549;28;20224;-68
2023/01/26 09:12:54;;;;;;;0.30;0.30;;;;;;;;;;5126433;28;20296;-75
2023/01/26 09:15:20;;;;;;;0.30;0.30;;;;;;;;;;5116546;28;20295;-68
2023/01/26 09:17:47;;;;;;;0.30;0.30;;;;;;;;;;5125891;28;20198;-68
2023/01/26 09:20:14;;;;;;;0.30;0.30;;;;;;;;;;5116196;28;20270;-68
2023/01/26 09:22:41;;;;;;;0.20;0.20;;;;;;;;;;5125816;28;20260;-68
2023/01/26 09:25:08;;;;;;;0.30;0.30;;;;;;;;;;5120435;28;20414;-68
2023/01/26 09:27:36;;;;;;;0.30;0.30;;;;;;;;;;5125752;28;20213;-69
2023/01/26 09:30:03;;;;;;;0.27;0.27;;;;;;;;;;5126958;28;20221;-68
2023/01/26 09:32:29;;;;;;;0.20;0.20;;;;;;;;;;5114832;28;20260;-69
2023/01/26 09:34:56;;;;;;;0.20;0.20;;;;;;;;;;5127036;28;20529;-69
2023/01/26 09:37:22;;;;;;;0.20;0.20;;;;;;;;;;5114957;28;20462;-69
2023/01/26 09:39:49;;;;;;;0.27;0.27;;;;;;;;;;5126903;28;20238;-67
2023/01/26 09:42:27;;;;;;;0.30;0.30;;;;;;;;;;5114835;28;20241;-68
2023/01/26 09:45:00;;;;;;;0.20;0.20;;;;;;;;;;5126786;28;20233;-69
2023/01/26 09:47:31;;;;;;;0.30;0.30;;;;;;;;;;5114597;28;20306;-69
2023/01/26 09:50:01;;;;;;;0.30;0.30;;;;;;;;;;5126523;28;20239;-69
2023/01/26 09:52:29;;;;;;;0.20;0.20;;;;;;;;;;5114476;28;20483;-68
2023/01/26 09:54:58;;;;;;;0.30;0.30;;;;;;;;;;5126550;28;20207;-68
2023/01/26 09:57:26;;;;;;;0.30;0.30;;;;;;;;;;5114408;28;20506;-69
2023/01/26 09:59:57;;;;;;;0.30;0.30;;;;;;;;;;5126458;28;20234;-69
2023/01/26 10:02:31;;;;;;;0.30;0.30;;;;;;;;;;5114246;28;20249;-69
2023/01/26 10:04:59;;;;;;;0.30;0.30;;;;;;;;;;5126125;28;20570;-69
2023/01/26 10:07:25;;;;;;;0.30;0.30;;;;;;;;;;5114150;28;20302;-69
2023/01/26 10:09:53;;;;;;;0.30;0.30;;;;;;;;;;5125774;28;20201;-69
2023/01/26 10:12:22;;;;;;;0.30;0.30;;;;;;;;;;5114011;28;20298;-69
2023/01/26 10:14:51;;;;;;;0.30;0.30;;;;;;;;;;5126123;28;20422;-70
2023/01/26 10:17:19;;;;;;;0.30;0.30;;;;;;;;;;5114048;28;20238;-69
2023/01/26 10:19:48;;;;;;;0.30;0.30;;;;;;;;;;5126028;28;20273;-69
2023/01/26 10:22:19;;;;;;;0.30;0.30;;;;;;;;;;5113733;28;20271;-69
2023/01/26 10:24:47;;;;;;;0.30;0.30;;;;;;;;;;5125942;28;20273;-69
2023/01/26 10:27:14;;;;;;;0.30;0.30;;;;;;;;;;5113803;28;20257;-69
2023/01/26 10:29:40;;;;;;;0.30;0.30;;;;;;;;;;5125802;28;20244;-69
2023/01/26 10:32:10;;;;;;;0.30;0.30;;;;;;;;;;5113581;28;20302;-69
2023/01/26 10:34:39;;;;;;;0.30;0.30;;;;;;;;;;5125672;28;20468;-68
2023/01/26 10:37:18;;;;;;;0.30;0.30;;;;;;;;;;5113632;28;20304;-69
2023/01/26 10:39:56;;;;;;;0.30;0.30;;;;;;;;;;5125580;28;20207;-71
2023/01/26 10:42:24;;;;;;;0.30;0.30;;;;;;;;;;5113563;28;20298;-71
2023/01/26 10:44:50;;;;;;;0.40;0.40;;;;;;;;;;5125475;28;20236;-70
2023/01/26 10:47:17;;;;;;;0.30;0.30;;;;;;;;;;5113439;28;20250;-72
2023/01/26 10:49:44;;;;;;;0.30;0.30;;;;;;;;;;5125422;28;20377;-72
2023/01/26 10:52:17;;;;;;;0.30;0.30;;;;;;;;;;5113307;28;20255;-72
2023/01/26 10:54:43;;;;;;;0.30;0.30;;;;;;;;;;5125276;28;20248;-72
2023/01/26 10:57:18;;;;;;;0.30;0.30;;;;;;;;;;5113310;28;20616;-72
2023/01/26 10:59:49;;;;;;;0.30;0.30;;;;;;;;;;5124684;28;20212;-72
2023/01/26 11:02:20;;;;;;;0.30;0.30;;;;;;;;;;5113196;28;20233;-74
2023/01/26 11:05:01;;;;;;;0.20;0.20;;;;;;;;;;5125237;28;20215;-74
2023/01/26 11:07:32;;;;;;;0.30;0.30;;;;;;;;;;5113113;28;20311;-74
2023/01/26 11:10:15;;;;;;;0.27;0.27;;;;;;;;;;5124953;28;20259;-74
2023/01/26 11:12:44;;;;;;;0.30;0.30;;;;;;;;;;5123760;28;20222;-73
2023/01/26 11:15:15;;;;;;;0.30;0.30;;;;;;;;;;5114313;28;20208;-73
2023/01/26 11:17:45;;;;;;;0.30;0.30;;;;;;;;;;5123526;28;20559;-69
2023/01/26 11:20:25;;;;;;;0.30;0.30;;;;;;;;;;5114136;28;20464;-70
2023/01/26 11:22:57;;;;;;;0.27;0.27;;;;;;;;;;5122669;28;20257;-71
2023/01/26 11:25:25;;;;;;;0.20;0.20;;;;;;;;;;5113925;28;20387;-71
2023/01/26 11:27:56;;;;;;;0.20;0.20;;;;;;;;;;5123354;28;20285;-69
2023/01/26 11:30:36;;;;;;;0.30;0.30;;;;;;;;;;5113693;28;20264;-69
2023/01/26 11:33:06;;;;;;;0.20;0.20;;;;;;;;;;5123438;28;20244;-69
2023/01/26 11:35:39;;;;;;;0.20;0.20;;;;;;;;;;5113365;28;20261;-70
2023/01/26 11:38:13;;;;;;;0.20;0.20;;;;;;;;;;5123670;28;20206;-70
2023/01/26 11:40:41;;;;;;;0.20;0.20;;;;;;;;;;5113596;28;20241;-69
2023/01/26 11:43:22;;;;;;;0.20;0.20;;;;;;;;;;5123712;28;20237;-70
2023/01/26 11:46:01;;;;;;;0.20;0.20;;;;;;;;;;5109916;28;20249;-70
2023/01/26 11:48:32;;;;;;;0.27;0.27;;;;;;;;;;5123928;28;20209;-70
2023/01/26 11:51:04;;;;;;;0.30;0.30;;;;;;;;;;5113266;28;20258;-70
2023/01/26 11:53:47;;;;;;;0.23;0.23;;;;;;;;;;5123569;28;20289;-70
2023/01/26 11:56:19;;;;;;;0.20;0.20;;;;;;;;;;5113103;28;20583;-70
2023/01/26 11:58:48;;;;;;;0.20;0.20;;;;;;;;;;5123804;28;20208;-69
2023/01/26 12:01:16;;;;;;;0.20;0.20;;;;;;;;;;5113068;28;20265;-71
2023/01/26 12:03:44;;;;;;;0.20;0.20;;;;;;;;;;5123702;28;20388;-71
2023/01/26 12:06:15;;;;;;;0.20;0.20;;;;;;;;;;5112791;28;20238;-71
2023/01/26 12:08:45;;;;;;;0.20;0.20;;;;;;;;;;5124163;28;20233;-70
2023/01/26 12:11:24;;;;;;;0.30;0.30;;;;;;;;;;5112780;28;20263;-70
2023/01/26 12:14:03;;;;;;;0.20;0.20;;;;;;;;;;5123610;28;20248;-72
2023/01/26 12:16:34;;;;;;;0.30;0.30;;;;;;;;;;5112744;28;20324;-73
2023/01/26 12:19:06;;;;;;;0.20;0.20;;;;;;;;;;5123935;28;20381;-73
2023/01/26 12:21:35;;;;;;;0.20;0.20;;;;;;;;;;5112415;28;20255;-72
2023/01/26 12:24:06;;;;;;;0.20;0.20;;;;;;;;;;5123889;28;20550;-72
2023/01/26 12:26:35;;;;;;;0.30;0.30;;;;;;;;;;5112566;28;20240;-72
2023/01/26 12:29:06;;;;;;;0.20;0.20;;;;;;;;;;5123750;28;20230;-73
2023/01/26 12:31:34;;;;;;;0.27;0.27;;;;;;;;;;5112178;28;20241;-72
2023/01/26 12:34:03;;;;;;;0.27;0.27;;;;;;;;;;5126235;28;20440;-72
2023/01/26 12:36:39;;;;;;;0.23;0.23;;;;;;;;;;5116155;28;20280;-72
2023/01/26 12:39:11;;;;;;;0.30;0.30;;;;;;;;;;5127828;28;20241;-71
2023/01/26 12:41:50;;;;;;;0.30;0.30;;;;;;;;;;5116153;28;20448;-70
2023/01/26 12:44:25;;;;;;;0.23;0.23;;;;;;;;;;5127854;28;20425;-71
2023/01/26 12:46:53;;;;;;;0.30;0.30;;;;;;;;;;5115831;28;20238;-72
2023/01/26 12:49:22;;;;;;;0.30;0.30;;;;;;;;;;5127768;28;20208;-70
2023/01/26 12:51:50;;;;;;;0.30;0.30;;;;;;;;;;5115890;28;20441;-74
2023/01/26 12:54:20;;;;;;;0.30;0.30;;;;;;;;;;5127540;28;20385;-73
2023/01/26 12:56:49;;;;;;;0.30;0.30;;;;;;;;;;5115874;28;20249;-73
2023/01/26 12:59:19;;;;;;;0.30;0.30;;;;;;;;;;5127501;28;20246;-73
2023/01/26 13:01:46;;;;;;;0.30;0.30;;;;;;;;;;5115561;28;20549;-67
2023/01/26 13:04:14;;;;;;;0.30;0.30;;;;;;;;;;5127331;28;20203;-66
2023/01/26 13:06:41;;;;;;;0.20;0.20;;;;;;;;;;5115626;28;20263;-66
2023/01/26 13:09:22;;;;;;;0.30;0.30;;;;;;;;;;5127130;28;20201;-67
2023/01/26 13:11:50;;;;;;;0.30;0.30;;;;;;;;;;5115520;28;20264;-68
2023/01/26 13:14:30;;;;;;;0.30;0.30;;;;;;;;;;5127130;28;20241;-67
2023/01/26 13:16:57;;;;;;;0.20;0.20;;;;;;;;;;5115533;28;20455;-68
2023/01/26 13:19:36;;;;;;;0.23;0.23;;;;;;;;;;5127079;28;20243;-68
2023/01/26 13:22:03;;;;;;;0.30;0.30;;;;;;;;;;5115167;28;20238;-67
2023/01/26 13:24:44;;;;;;;0.30;0.30;;;;;;;;;;5127197;28;20273;-67
2023/01/26 13:27:25;;;;;;;0.30;0.30;;;;;;;;;;5115201;28;20507;-69
2023/01/26 13:29:53;;;;;;;0.27;0.27;;;;;;;;;;5124181;28;20342;-67
2023/01/26 13:32:47;;;;;;;0.30;0.30;;;;;;;;;;5114862;28;20233;-67
2023/01/26 13:35:14;;;;;;;0.27;0.27;;;;;;;;;;5068169;28;20233;-67
2023/01/26 13:37:46;;;;;;;0.23;0.23;;;;;;;;;;5125331;28;20208;-67
2023/01/26 13:40:19;;;;;;;0.23;0.23;;;;;;;;;;5115857;28;20219;-68
2023/01/26 13:42:51;;;;;;;0.30;0.30;;;;;;;;;;5125600;28;20253;-68
2023/01/26 13:45:23;;;;;;;0.30;0.30;;;;;;;;;;5115198;28;20221;-68
2023/01/26 13:47:50;;;;;;;0.30;0.30;;;;;;;;;;5125589;28;20220;-68
2023/01/26 13:50:23;;;;;;;0.30;0.30;;;;;;;;;;5115805;28;20234;-69
2023/01/26 13:52:49;;;;;;;0.30;0.30;;;;;;;;;;5125505;28;20216;-67
2023/01/26 13:55:22;;;;;;;0.30;0.30;;;;;;;;;;5115499;28;20204;-67
2023/01/26 13:57:48;;;;;;;0.30;0.30;;;;;;;;;;5125225;28;20225;-68
2023/01/26 14:00:15;;;;;;;0.30;0.30;;;;;;;;;;5115549;28;20235;-67
2023/01/26 14:02:48;;;;;;;0.30;0.30;;;;;;;;;;5124964;28;20220;-67
2023/01/26 14:05:21;;;;;;;0.30;0.30;;;;;;;;;;5115388;28;20194;-67
2023/01/26 14:07:47;;;;;;;0.30;0.30;;;;;;;;;;5125206;28;20381;-68
2023/01/26 14:10:15;;;;;;;0.30;0.30;;;;;;;;;;5115234;28;20202;-67
2023/01/26 14:12:44;;;;;;;0.30;0.30;;;;;;;;;;5124580;28;20228;-68
2023/01/26 14:15:19;;;;;;;0.30;0.30;;;;;;;;;;5123932;28;20442;-69
2023/01/26 14:17:47;;;;;;;0.30;0.30;;;;;;;;;;5125901;28;20221;-68
2023/01/26 14:20:18;;;;;;;0.30;0.30;;;;;;;;;;5115000;28;20234;-68
2023/01/26 14:22:47;;;;;;;0.30;0.30;;;;;;;;;;5124395;28;20205;-67
2023/01/26 14:25:19;;;;;;;0.30;0.30;;;;;;;;;;5114931;28;20203;-67
2023/01/26 14:27:46;;;;;;;0.30;0.30;;;;;;;;;;5124521;28;20192;-67
2023/01/26 14:30:31;;;;;;;0.30;0.30;;;;;;;;;;5114727;28;20240;-68
2023/01/26 14:33:00;;;;;;;0.30;0.30;;;;;;;;;;5124726;28;20386;-67
2023/01/26 14:35:27;;;;;;;0.30;0.30;;;;;;;;;;5114476;28;20190;-68
2023/01/26 14:38:05;;;;;;;0.30;0.30;;;;;;;;;;5124652;28;20416;-70
2023/01/26 14:40:31;;;;;;;0.30;0.30;;;;;;;;;;5114908;28;20298;-71
2023/01/26 14:42:59;;;;;;;0.23;0.23;;;;;;;;;;5124429;28;20226;-71
2023/01/26 14:45:28;;;;;;;0.30;0.30;;;;;;;;;;5114565;28;20235;-70
2023/01/26 14:47:55;;;;;;;0.30;0.30;;;;;;;;;;5124149;28;20213;-71
2023/01/26 14:50:26;;;;;;;0.23;0.23;;;;;;;;;;5114601;28;20369;-68
2023/01/26 14:52:52;;;;;;;0.30;0.30;;;;;;;;;;5123717;28;20235;-69
2023/01/26 14:55:21;;;;;;;0.77;0.77;;;;;;;;;;5114494;28;20319;-71
2023/01/26 14:57:48;;;;;;;0.30;0.30;;;;;;;;;;5123836;28;20224;-73
2023/01/26 15:00:23;;;;;;;0.30;0.30;;;;;;;;;;5114431;28;20241;-72
2023/01/26 15:02:52;;;;;;;0.30;0.30;;;;;;;;;;5124093;28;20411;-71
2023/01/26 15:05:20;;;;;;;0.27;0.27;;;;;;;;;;5114166;28;20266;-72
2023/01/26 15:07:48;;;;;;;0.30;0.30;;;;;;;;;;5123725;28;20197;-72
2023/01/26 15:10:26;;;;;;;0.30;0.30;;;;;;;;;;5114153;28;20226;-72
2023/01/26 15:12:57;;;;;;;0.30;0.30;;;;;;;;;;5123900;28;20362;-71
2023/01/26 15:15:27;;;;;;;0.30;0.30;;;;;;;;;;5114200;28;20288;-69
2023/01/26 15:18:00;;;;;;;0.30;0.30;;;;;;;;;;5123869;28;20267;-70
2023/01/26 15:20:39;;;;;;;0.30;0.30;;;;;;;;;;5114140;28;20260;-71
2023/01/26 15:23:19;;;;;;;0.30;0.30;;;;;;;;;;5123602;28;20516;-72
2023/01/26 15:25:45;;;;;;;0.30;0.30;;;;;;;;;;5113551;28;20258;-70
2023/01/26 15:28:16;;;;;;;0.30;0.30;;;;;;;;;;5123902;28;20394;-67
2023/01/26 15:30:48;;;;;;;0.30;0.30;;;;;;;;;;5113700;28;20298;-68
2023/01/26 15:33:33;;;;;;;0.30;0.30;;;;;;;;;;5123891;28;20489;-71
2023/01/26 15:35:59;;;;;;;0.30;0.30;;;;;;;;;;5113448;28;20534;-67
2023/01/26 15:38:26;;;;;;;0.30;0.30;;;;;;;;;;5123937;28;20449;-71
2023/01/26 15:40:52;;;;;;;0.30;0.30;;;;;;;;;;5113381;28;20314;-71